createdAt,value
2018-01-29T00:01:48.818Z,74.43
2018-01-29T00:04:18.254Z,74.60
2018-01-29T00:06:48.320Z,74.60
2018-01-29T00:09:18.428Z,74.53
2018-01-29T00:11:48.095Z,74.73
2018-01-29T00:14:17.261Z,74.60
2018-01-29T00:16:46.392Z,74.55
2018-01-29T00:19:15.829Z,75.07
2018-01-29T00:21:44.980Z,74.67
2018-01-29T00:24:14.100Z,74.27
2018-01-29T00:26:44.832Z,74.54
2018-01-29T00:29:14.058Z,74.37
2018-01-29T00:31:43.390Z,74.38
2018-01-29T00:34:12.914Z,74.37
2018-01-29T00:36:42.136Z,74.51
2018-01-29T00:39:11.314Z,74.96
2018-01-29T00:41:40.924Z,74.88
2018-01-29T00:44:10.087Z,74.64
2018-01-29T00:46:39.216Z,74.49
2018-01-29T00:49:08.854Z,74.54
2018-01-29T00:51:38.050Z,74.62
2018-01-29T00:54:07.269Z,74.86
2018-01-29T00:56:36.790Z,74.87
2018-01-29T00:59:06.347Z,75.18
2018-01-29T01:01:35.577Z,75.12
2018-01-29T01:04:06.032Z,75.30
2018-01-29T01:06:35.270Z,75.26
2018-01-29T01:09:05.447Z,75.60
2018-01-29T01:11:34.872Z,75.60
2018-01-29T01:14:06.374Z,75.55
2018-01-29T01:16:36.803Z,75.91
2018-01-29T01:19:06.262Z,75.82
2018-01-29T01:21:35.362Z,76.14
2018-01-29T01:24:05.380Z,76.36
2018-01-29T01:26:34.924Z,76.04
2018-01-29T01:29:04.326Z,76.27
2018-01-29T01:31:33.457Z,76.10
2018-01-29T01:34:05.006Z,75.95
2018-01-29T01:36:34.293Z,76.25
2018-01-29T01:39:03.665Z,76.10
2018-01-29T01:41:34.093Z,76.17
2018-01-29T01:44:04.014Z,76.20
2018-01-29T01:46:33.132Z,76.38
2018-01-29T01:49:02.775Z,76.24
2018-01-29T01:51:31.931Z,76.32
2018-01-29T01:54:01.091Z,76.47
2018-01-29T01:56:30.671Z,76.60
2018-01-29T01:58:59.784Z,76.49
2018-01-29T02:01:28.977Z,76.32
2018-01-29T02:03:58.474Z,76.12
2018-01-29T02:06:27.620Z,76.04
2018-01-29T02:08:56.762Z,76.46
2018-01-29T02:11:26.269Z,76.39
2018-01-29T02:13:55.439Z,76.13
2018-01-29T02:16:24.592Z,75.76
2018-01-29T02:18:55.328Z,75.76
2018-01-29T02:21:24.489Z,75.93
2018-01-29T02:23:53.639Z,76.52
2018-01-29T02:26:23.122Z,76.21
2018-01-29T02:28:52.226Z,76.14
2018-01-29T02:31:21.368Z,76.10
2018-01-29T02:33:50.821Z,76.23
2018-01-29T02:36:20.079Z,76.15
2018-01-29T02:38:49.219Z,76.16
2018-01-29T02:41:18.621Z,76.22
2018-01-29T02:43:47.752Z,76.44
2018-01-29T02:46:17.036Z,76.55
2018-01-29T02:48:46.558Z,76.71
2018-01-29T02:51:15.786Z,76.86
2018-01-29T02:53:45.138Z,77.00
2018-01-29T02:56:15.754Z,76.94
2018-01-29T02:58:45.167Z,76.74
2018-01-29T03:01:14.283Z,76.75
2018-01-29T03:03:44.807Z,77.44
2018-01-29T03:06:14.045Z,77.64
2018-01-29T03:08:43.432Z,77.68
2018-01-29T03:11:12.888Z,77.99
2018-01-29T03:13:42.286Z,78.62
2018-01-29T03:16:11.599Z,78.82
2018-01-29T03:18:41.221Z,78.89
2018-01-29T03:21:10.423Z,79.11
2018-01-29T03:23:39.701Z,78.97
2018-01-29T03:26:09.176Z,79.29
2018-01-29T03:28:38.352Z,79.71
2018-01-29T03:31:07.624Z,79.90
2018-01-29T03:33:37.126Z,80.09
2018-01-29T03:36:06.506Z,79.98
2018-01-29T03:38:35.606Z,80.33
2018-01-29T03:41:05.270Z,81.25
2018-01-29T03:43:34.484Z,81.14
2018-01-29T03:46:04.377Z,81.16
2018-01-29T03:48:33.783Z,81.56
2018-01-29T03:51:03.134Z,81.40
2018-01-29T03:53:32.308Z,81.50
2018-01-29T03:56:03.084Z,81.31
2018-01-29T03:59:34.590Z,81.35
2018-01-29T04:02:05.602Z,81.70
2018-01-29T04:04:34.733Z,81.76
2018-01-29T04:07:04.196Z,82.15
2018-01-29T04:09:33.731Z,82.13
2018-01-29T04:12:03.800Z,82.08
2018-01-29T04:14:33.159Z,82.19
2018-01-29T04:17:03.544Z,82.14
2018-01-29T04:19:32.706Z,82.10
2018-01-29T04:22:03.792Z,82.05
2018-01-29T04:24:33.249Z,82.21
2018-01-29T04:27:02.618Z,82.17
2018-01-29T04:29:31.713Z,82.35
2018-01-29T04:32:02.218Z,82.62
2018-01-29T04:34:31.388Z,82.69
2018-01-29T04:37:00.518Z,83.06
2018-01-29T04:39:30.990Z,82.97
2018-01-29T04:42:00.214Z,83.16
2018-01-29T04:44:29.451Z,82.82
2018-01-29T04:46:59.134Z,82.66
2018-01-29T04:49:28.819Z,82.69
2018-01-29T04:51:57.938Z,82.83
2018-01-29T04:54:27.419Z,82.61
2018-01-29T04:56:57.697Z,82.52
2018-01-29T04:59:27.460Z,82.43
2018-01-29T05:01:58.113Z,82.29
2018-01-29T05:04:27.214Z,82.26
2018-01-29T05:06:56.329Z,82.20
2018-01-29T05:09:25.921Z,82.01
2018-01-29T05:11:55.010Z,81.65
2018-01-29T05:14:24.161Z,81.51
2018-01-29T05:16:55.651Z,81.50
2018-01-29T05:19:24.791Z,81.75
2018-01-29T05:21:54.038Z,81.73
2018-01-29T05:24:23.589Z,82.32
2018-01-29T05:26:52.753Z,82.50
2018-01-29T05:29:21.917Z,82.08
2018-01-29T05:31:51.343Z,82.20
2018-01-29T05:34:20.539Z,82.06
2018-01-29T05:36:49.899Z,81.79
2018-01-29T05:39:19.619Z,81.80
2018-01-29T05:41:48.753Z,81.64
2018-01-29T05:44:17.965Z,81.61
2018-01-29T05:46:47.470Z,81.61
2018-01-29T05:49:16.726Z,81.75
2018-01-29T05:51:45.919Z,81.88
2018-01-29T05:54:15.495Z,81.56
2018-01-29T05:56:45.845Z,81.50
2018-01-29T05:59:15.452Z,81.41
2018-01-29T06:01:44.835Z,81.44
2018-01-29T06:04:14.041Z,81.14
2018-01-29T06:06:43.225Z,81.10
2018-01-29T06:09:13.695Z,81.74
2018-01-29T06:11:42.988Z,81.55
2018-01-29T06:14:12.121Z,81.66
2018-01-29T06:16:42.742Z,81.50
2018-01-29T06:19:11.903Z,81.23
2018-01-29T06:21:42.701Z,81.65
2018-01-29T06:24:11.898Z,81.59
2018-01-29T06:26:41.112Z,81.55
2018-01-29T06:29:10.523Z,81.33
2018-01-29T06:31:39.711Z,81.60
2018-01-29T06:34:08.911Z,81.60
2018-01-29T06:36:38.349Z,81.31
2018-01-29T06:39:07.840Z,81.42
2018-01-29T06:41:36.984Z,81.71
2018-01-29T06:44:06.943Z,81.69
2018-01-29T06:46:36.089Z,81.97
2018-01-29T06:49:06.151Z,81.81
2018-01-29T06:51:35.657Z,81.46
2018-01-29T06:54:05.684Z,81.64
2018-01-29T06:56:35.159Z,81.46
2018-01-29T06:59:05.959Z,81.64
2018-01-29T07:01:35.145Z,81.31
2018-01-29T07:04:06.108Z,81.67
2018-01-29T07:06:35.658Z,81.72
2018-01-29T07:09:05.675Z,81.62
2018-01-29T07:11:34.872Z,81.70
2018-01-29T07:14:06.579Z,81.63
2018-01-29T07:16:36.882Z,81.74
2018-01-29T07:19:06.092Z,81.97
2018-01-29T07:21:35.551Z,81.86
2018-01-29T07:24:05.399Z,81.76
2018-01-29T07:26:34.587Z,81.86
2018-01-29T07:29:04.260Z,81.59
2018-01-29T07:31:33.396Z,81.37
2018-01-29T07:34:03.836Z,81.46
2018-01-29T07:36:33.298Z,81.26
2018-01-29T07:39:04.083Z,81.12
2018-01-29T07:41:33.704Z,80.84
2018-01-29T07:44:04.417Z,81.06
2018-01-29T07:46:34.928Z,81.00
2018-01-29T07:49:05.367Z,81.21
2018-01-29T07:51:36.167Z,81.45
2018-01-29T07:54:05.968Z,81.51
2018-01-29T07:56:35.173Z,81.90
2018-01-29T07:59:05.783Z,82.03
2018-01-29T08:01:34.983Z,81.79
2018-01-29T08:04:05.377Z,81.74
2018-01-29T08:06:34.919Z,81.45
2018-01-29T08:09:06.059Z,81.37
2018-01-29T08:11:35.227Z,81.83
2018-01-29T08:14:05.998Z,81.48
2018-01-29T08:16:35.135Z,81.32
2018-01-29T08:19:05.296Z,81.44
2018-01-29T08:21:34.867Z,81.27
2018-01-29T08:24:05.661Z,81.08
2018-01-29T08:26:34.772Z,81.25
2018-01-29T08:29:04.565Z,81.58
2018-01-29T08:31:33.713Z,81.55
2018-01-29T08:34:04.004Z,81.41
2018-01-29T08:36:33.586Z,81.18
2018-01-29T08:39:05.124Z,80.74
2018-01-29T08:41:34.554Z,80.90
2018-01-29T08:44:06.176Z,80.39
2018-01-29T08:46:35.642Z,80.02
2018-01-29T08:49:05.735Z,79.69
2018-01-29T08:51:35.240Z,79.52
2018-01-29T08:54:06.567Z,79.31
2018-01-29T08:56:35.905Z,79.29
2018-01-29T08:59:05.427Z,79.04
2018-01-29T09:01:34.591Z,79.00
2018-01-29T09:04:05.055Z,79.19
2018-01-29T09:06:34.487Z,79.31
2018-01-29T09:09:04.195Z,79.47
2018-01-29T09:11:33.498Z,79.36
2018-01-29T09:14:04.072Z,79.43
2018-01-29T09:16:33.249Z,79.36
2018-01-29T09:19:03.388Z,79.07
2018-01-29T09:21:32.864Z,79.14
2018-01-29T09:24:02.831Z,79.27
2018-01-29T09:26:32.055Z,79.55
2018-01-29T09:29:01.889Z,79.27
2018-01-29T09:31:31.137Z,79.75
2018-01-29T09:34:01.347Z,79.71
2018-01-29T09:36:30.980Z,79.63
2018-01-29T09:39:00.973Z,79.37
2018-01-29T09:41:30.260Z,79.84
2018-01-29T09:43:59.788Z,79.35
2018-01-29T09:46:28.917Z,78.86
2018-01-29T09:48:58.369Z,78.45
2018-01-29T09:51:27.889Z,78.17
2018-01-29T09:53:57.158Z,77.81
2018-01-29T09:56:26.560Z,77.85
2018-01-29T09:58:57.663Z,77.88
2018-01-29T10:01:27.019Z,77.38
2018-01-29T10:03:56.206Z,77.37
2018-01-29T10:06:25.639Z,77.56
2018-01-29T10:08:54.776Z,77.52
2018-01-29T10:11:23.959Z,77.18
2018-01-29T10:13:53.407Z,77.42
2018-01-29T10:16:22.662Z,77.18
2018-01-29T10:18:51.812Z,77.07
2018-01-29T10:21:21.299Z,76.66
2018-01-29T10:23:51.042Z,76.75
2018-01-29T10:26:20.187Z,77.53
2018-01-29T10:28:49.949Z,77.10
2018-01-29T10:31:19.408Z,77.75
2018-01-29T10:33:48.620Z,77.27
2018-01-29T10:36:18.167Z,77.56
2018-01-29T10:38:48.504Z,77.13
2018-01-29T10:41:18.314Z,76.89
2018-01-29T10:43:47.775Z,76.46
2018-01-29T10:46:16.915Z,76.71
2018-01-29T10:48:48.124Z,76.56
2018-01-29T10:51:18.241Z,76.68
2018-01-29T10:53:49.429Z,76.39
2018-01-29T10:56:18.599Z,76.37
2018-01-29T10:58:49.527Z,76.55
2018-01-29T11:01:22.751Z,76.38
2018-01-29T11:03:53.356Z,75.98
2018-01-29T11:06:22.546Z,75.98
2018-01-29T11:08:52.009Z,75.49
2018-01-29T11:11:21.602Z,75.42
2018-01-29T11:13:50.760Z,75.39
2018-01-29T11:16:19.983Z,75.17
2018-01-29T11:18:50.486Z,74.86
2018-01-29T11:21:19.824Z,74.57
2018-01-29T11:23:49.073Z,73.71
2018-01-29T11:26:19.566Z,73.45
2018-01-29T11:28:49.940Z,73.14
2018-01-29T11:31:19.167Z,73.14
2018-01-29T11:33:49.664Z,73.07
2018-01-29T11:36:18.837Z,73.11
2018-01-29T11:38:48.054Z,72.88
2018-01-29T11:41:17.532Z,72.92
2018-01-29T11:43:46.963Z,72.64
2018-01-29T11:46:16.207Z,72.67
2018-01-29T11:48:46.706Z,72.50
2018-01-29T11:51:15.915Z,72.46
2018-01-29T11:53:45.057Z,72.60
2018-01-29T11:56:15.029Z,72.81
2018-01-29T11:58:47.141Z,72.85
2018-01-29T12:01:16.300Z,72.88
2018-01-29T12:03:48.876Z,72.93
2018-01-29T12:06:18.091Z,72.86
2018-01-29T12:08:47.363Z,72.87
2018-01-29T12:11:16.849Z,72.72
2018-01-29T12:13:45.964Z,72.31
2018-01-29T12:16:15.211Z,72.12
2018-01-29T12:18:44.854Z,72.13
2018-01-29T12:21:14.165Z,72.17
2018-01-29T12:23:45.459Z,71.81
2018-01-29T12:26:16.146Z,71.87
2018-01-29T12:28:46.561Z,71.70
2018-01-29T12:31:15.830Z,71.70
2018-01-29T12:33:45.388Z,71.78
2018-01-29T12:36:14.519Z,71.48
2018-01-29T12:38:44.295Z,71.05
2018-01-29T12:41:14.084Z,71.03
2018-01-29T12:43:43.367Z,70.61
2018-01-29T12:46:12.855Z,70.67
2018-01-29T12:48:42.232Z,70.27
2018-01-29T12:51:11.450Z,70.28
2018-01-29T12:53:41.309Z,69.99
2018-01-29T12:56:10.912Z,70.35
2018-01-29T12:58:40.145Z,70.21
2018-01-29T13:01:09.607Z,70.33
2018-01-29T13:03:38.795Z,70.08
2018-01-29T13:06:08.079Z,70.13
2018-01-29T13:08:38.600Z,69.89
2018-01-29T13:11:07.748Z,70.07
2018-01-29T13:13:36.927Z,70.06
2018-01-29T13:16:06.102Z,70.01
2018-01-29T13:18:35.246Z,70.46
2018-01-29T13:21:04.718Z,70.38
2018-01-29T13:23:34.167Z,70.69
2018-01-29T13:26:06.639Z,71.20
2018-01-29T13:28:35.926Z,71.31
2018-01-29T13:31:05.503Z,71.57
2018-01-29T13:33:35.074Z,71.38
2018-01-29T13:36:06.711Z,71.39
2018-01-29T13:38:36.575Z,71.50
2018-01-29T13:41:05.731Z,71.34
2018-01-29T13:43:34.883Z,71.11
2018-01-29T13:46:06.599Z,71.32
2018-01-29T13:48:35.779Z,71.16
2018-01-29T13:51:09.004Z,71.17
2018-01-29T13:53:39.743Z,71.14
2018-01-29T13:56:09.141Z,71.52
2018-01-29T13:58:38.562Z,71.62
2018-01-29T14:01:08.109Z,71.89
2018-01-29T14:03:37.265Z,71.69
2018-01-29T14:06:06.488Z,71.67
2018-01-29T14:08:36.095Z,71.74
2018-01-29T14:11:05.532Z,71.95
2018-01-29T14:13:34.879Z,72.20
2018-01-29T14:16:06.139Z,72.32
2018-01-29T14:18:35.330Z,72.36
2018-01-29T14:21:04.878Z,72.32
2018-01-29T14:23:34.972Z,72.07
2018-01-29T14:26:05.690Z,71.14
2018-01-29T14:28:35.235Z,70.68
2018-01-29T14:31:05.127Z,69.76
2018-01-29T14:33:34.369Z,69.82
2018-01-29T14:36:04.630Z,69.63
2018-01-29T14:38:36.080Z,69.81
2018-01-29T14:41:05.656Z,69.44
2018-01-29T14:43:34.851Z,69.51
2018-01-29T14:46:05.161Z,69.19
2018-01-29T14:48:34.748Z,69.17
2018-01-29T14:51:04.361Z,69.05
2018-01-29T14:53:33.822Z,68.35
2018-01-29T14:56:04.065Z,68.42
2018-01-29T14:58:34.424Z,68.87
2018-01-29T15:01:04.481Z,68.19
2018-01-29T15:03:33.945Z,67.61
2018-01-29T15:06:04.390Z,67.10
2018-01-29T15:08:33.872Z,67.36
2018-01-29T15:11:03.665Z,67.64
2018-01-29T15:13:32.966Z,67.82
2018-01-29T15:16:05.427Z,68.13
2018-01-29T15:18:35.349Z,68.62
2018-01-29T15:21:07.066Z,68.74
2018-01-29T15:23:37.098Z,68.71
2018-01-29T15:26:08.093Z,68.23
2018-01-29T15:28:37.303Z,68.04
2018-01-29T15:31:07.792Z,68.27
2018-01-29T15:33:37.078Z,67.92
2018-01-29T15:36:06.299Z,68.10
2018-01-29T15:38:37.883Z,68.02
2018-01-29T15:41:10.253Z,67.80
2018-01-29T15:43:40.130Z,67.85
2018-01-29T15:46:10.137Z,67.78
2018-01-29T15:48:39.542Z,67.81
2018-01-29T15:51:08.768Z,67.52
2018-01-29T15:53:38.267Z,67.39
2018-01-29T15:56:07.924Z,67.42
2018-01-29T15:58:37.122Z,67.45
2018-01-29T16:01:06.681Z,67.32
2018-01-29T16:03:35.867Z,66.95
2018-01-29T16:06:06.308Z,66.74
2018-01-29T16:08:35.907Z,66.76
2018-01-29T16:11:05.435Z,66.86
2018-01-29T16:13:34.731Z,66.96
2018-01-29T16:16:05.346Z,66.98
2018-01-29T16:18:34.636Z,67.04
2018-01-29T16:21:04.086Z,67.05
2018-01-29T16:23:34.004Z,67.23
2018-01-29T16:26:05.806Z,67.24
2018-01-29T16:28:35.044Z,67.11
2018-01-29T16:31:04.507Z,67.25
2018-01-29T16:33:34.109Z,67.20
2018-01-29T16:36:06.292Z,67.46
2018-01-29T16:38:35.649Z,67.27
2018-01-29T16:41:04.891Z,67.50
2018-01-29T16:43:35.419Z,67.68
2018-01-29T16:46:05.763Z,67.96
2018-01-29T16:51:17.741Z,68.74
2018-01-29T16:53:48.229Z,68.44
2018-01-29T16:56:17.978Z,68.65
2018-01-29T16:58:47.740Z,68.68
2018-01-29T17:01:22.918Z,68.46
2018-01-29T17:03:53.422Z,68.77
2018-01-29T17:06:22.741Z,68.70
2018-01-29T17:08:54.518Z,68.85
2018-01-29T17:11:23.949Z,68.88
2018-01-29T17:13:54.749Z,68.99
2018-01-29T17:16:24.463Z,69.02
2018-01-29T17:18:53.643Z,69.07
2018-01-29T17:21:22.896Z,69.17
2018-01-29T17:23:53.500Z,69.27
2018-01-29T17:26:24.150Z,69.38
2018-01-29T17:28:54.048Z,69.30
2018-01-29T17:31:25.448Z,69.50
2018-01-29T17:33:55.626Z,69.23
2018-01-29T17:36:25.202Z,69.40
2018-01-29T17:38:54.706Z,69.24
2018-01-29T17:41:23.846Z,69.09
2018-01-29T17:43:53.093Z,69.01
2018-01-29T17:46:22.617Z,69.07
2018-01-29T17:48:51.790Z,68.85
2018-01-29T17:51:20.899Z,68.77
2018-01-29T17:53:50.501Z,68.57
2018-01-29T17:56:19.850Z,68.60
2018-01-29T17:58:49.196Z,68.72
2018-01-29T18:01:18.643Z,68.78
2018-01-29T18:03:47.946Z,68.92
2018-01-29T18:06:17.415Z,69.02
2018-01-29T18:08:49.760Z,68.77
2018-01-29T18:11:18.960Z,68.61
2018-01-29T18:13:53.517Z,68.75
2018-01-29T18:16:27.561Z,68.89
2018-01-29T18:18:56.983Z,69.12
2018-01-29T18:21:26.310Z,69.01
2018-01-29T18:23:55.626Z,68.96
2018-01-29T18:26:24.761Z,68.52
2018-01-29T18:28:54.400Z,68.13
2018-01-29T18:31:23.511Z,67.87
2018-01-29T18:33:52.769Z,67.56
2018-01-29T18:36:22.805Z,67.58
2018-01-29T18:38:52.121Z,67.50
2018-01-29T18:41:21.374Z,67.15
2018-01-29T18:43:51.923Z,67.29
2018-01-29T18:46:21.260Z,67.32
2018-01-29T18:48:52.572Z,67.33
2018-01-29T18:51:22.449Z,67.36
2018-01-29T18:53:51.591Z,67.24
2018-01-29T18:56:21.763Z,67.19
2018-01-29T19:01:14.664Z,66.92
2018-01-29T19:03:44.280Z,66.98
2018-01-29T19:06:13.746Z,66.89
2018-01-29T19:08:43.196Z,66.58
2018-01-29T19:11:12.473Z,66.79
2018-01-29T19:13:42.132Z,66.78
2018-01-29T19:16:11.304Z,66.85
2018-01-29T19:18:40.560Z,67.09
2018-01-29T19:21:10.481Z,67.53
2018-01-29T19:23:39.727Z,67.97
2018-01-29T19:26:08.877Z,68.24
2018-01-29T19:28:38.328Z,68.48
2018-01-29T19:31:07.547Z,68.53
2018-01-29T19:33:36.775Z,68.65
2018-01-29T19:36:10.076Z,68.68
2018-01-29T19:38:39.261Z,68.77
2018-01-29T19:41:09.202Z,68.81
2018-01-29T19:43:38.736Z,68.78
2018-01-29T19:46:07.864Z,68.62
2018-01-29T19:48:37.059Z,68.45
2018-01-29T19:51:06.548Z,68.38
2018-01-29T19:53:35.728Z,68.37
2018-01-29T19:56:06.614Z,68.28
2018-01-29T19:58:36.233Z,67.89
2018-01-29T20:01:06.092Z,67.83
2018-01-29T20:03:35.328Z,67.85
2018-01-29T20:06:05.690Z,67.97
2018-01-29T20:08:34.839Z,68.25
2018-01-29T20:11:04.327Z,68.10
2018-01-29T20:13:33.826Z,68.06
2018-01-29T20:16:04.340Z,68.19
2018-01-29T20:18:33.562Z,68.13
2018-01-29T20:21:05.212Z,68.07
2018-01-29T20:23:34.548Z,68.02
2018-01-29T20:26:06.796Z,68.04
2018-01-29T20:28:37.722Z,68.11
2018-01-29T20:31:08.011Z,68.11
2018-01-29T20:33:37.233Z,68.18
2018-01-29T20:36:06.725Z,68.16
2018-01-29T20:38:35.910Z,68.32
2018-01-29T20:41:05.240Z,68.35
2018-01-29T20:43:34.675Z,68.39
2018-01-29T20:46:04.590Z,68.53
2018-01-29T20:48:34.029Z,68.74
2018-01-29T20:51:05.066Z,69.25
2018-01-29T20:53:34.208Z,69.44
2018-01-29T20:56:04.339Z,69.86
2018-01-29T20:58:33.959Z,69.90
2018-01-29T21:01:04.106Z,69.92
2018-01-29T21:03:33.232Z,70.34
2018-01-29T21:06:03.742Z,70.58
2018-01-29T21:08:33.390Z,70.66
2018-01-29T21:11:02.932Z,70.72
2018-01-29T21:16:01.929Z,71.19
2018-01-29T21:18:31.184Z,71.44
2018-01-29T21:21:00.672Z,71.69
2018-01-29T21:23:29.838Z,71.68
2018-01-29T21:25:59.017Z,71.69
2018-01-29T21:28:28.584Z,71.65
2018-01-29T21:30:57.824Z,71.83
2018-01-29T21:33:26.967Z,71.91
2018-01-29T21:35:57.027Z,71.82
2018-01-29T21:38:26.354Z,71.70
2018-01-29T21:40:55.800Z,71.99
2018-01-29T21:43:25.220Z,71.97
2018-01-29T21:45:54.363Z,71.92
2018-01-29T21:48:23.572Z,71.79
2018-01-29T21:50:52.969Z,71.89
2018-01-29T21:53:22.226Z,71.94
2018-01-29T21:55:52.008Z,71.87
2018-01-29T21:58:22.428Z,72.05
2018-01-29T22:00:58.720Z,71.94
2018-01-29T22:03:31.186Z,72.00
2018-01-29T22:06:00.822Z,71.91
2018-01-29T22:08:30.082Z,71.91
2018-01-29T22:10:59.629Z,71.82
2018-01-29T22:13:29.220Z,71.62
2018-01-29T22:15:58.921Z,71.64
2018-01-29T22:18:28.704Z,72.26
2018-01-29T22:20:59.735Z,72.38
2018-01-29T22:23:28.844Z,72.57
2018-01-29T22:25:58.404Z,72.96
2018-01-29T22:28:27.568Z,72.95
2018-01-29T22:30:57.042Z,73.04
2018-01-29T22:33:26.689Z,73.59
2018-01-29T22:35:56.236Z,73.86
2018-01-29T22:38:25.388Z,74.30
2018-01-29T22:40:54.639Z,74.08
2018-01-29T22:43:24.016Z,74.21
2018-01-29T22:45:54.504Z,74.39
2018-01-29T22:48:23.992Z,74.38
2018-01-29T22:50:53.086Z,74.58
2018-01-29T22:53:22.262Z,74.24
2018-01-29T22:55:52.932Z,74.26
2018-01-29T22:58:22.315Z,74.37
2018-01-29T23:00:51.624Z,74.37
2018-01-29T23:03:21.127Z,74.46
2018-01-29T23:05:50.249Z,74.41
2018-01-29T23:08:19.382Z,74.62
2018-01-29T23:10:48.841Z,74.48
2018-01-29T23:13:18.047Z,74.69
2018-01-29T23:15:47.216Z,74.62
2018-01-29T23:18:16.552Z,74.68
2018-01-29T23:20:46.012Z,74.98
2018-01-29T23:23:15.250Z,75.12
2018-01-29T23:25:44.799Z,75.73
2018-01-29T23:28:14.311Z,76.13
2018-01-29T23:30:43.932Z,76.29
2018-01-29T23:33:13.386Z,76.44
2018-01-29T23:35:42.528Z,76.52
2018-01-29T23:38:11.912Z,76.74
2018-01-29T23:40:41.380Z,76.65
2018-01-29T23:43:10.478Z,76.67
2018-01-29T23:45:39.615Z,76.90
2018-01-29T23:48:09.057Z,77.26
2018-01-29T23:50:38.180Z,77.34
2018-01-29T23:53:07.314Z,77.42
2018-01-29T23:55:36.443Z,77.54
2018-01-29T23:58:06.277Z,77.86
